Terminal Aerodrome Forecast
Issued by NWS

Home | Current Version | Previous Version | Graphics & Text | Print | Product List | Glossary On
Versions: 1 2 3 4 5 6 7 8 9 10 11 12 13 14 15
000
FTUS43 KMPX 132100 AAA
TAFRNH
TAF AMD
KRNH 132105Z 1321/1418 36014KT P6SM SCT020 OVC060
     FM140000 35017G23KT P6SM SCT025 OVC080
     FM140900 35018G24KT P6SM SCT050 BKN250=

USA.gov is the U.S. government's official web portal to all federal, state and local government web resources and services.